Charter Quote
Worldwide +1-877-727-2538 Call
Select Language Lang
SAFETY RELIABILITY EXPERIENCE

Private Jet Charter Services - Jinzhou Airport (ZYJZ)

Paramount Business Jets offers private jet charter flights and luxury airliner charters to and from Jinzhou Airport.

AIRPORT INFORMATION
ICAOZYJZ
LOCATIONJinzhou, China
FACILITY TYPEAIRPORT

At Paramount Business Jets you can hire chartered private jets to and from Jinzhou Airport with as little as 4 hours of notice. All flights booked via Paramount Business Jets are operated by certified direct air carriers that meet and exceed the FAA part 135 and 121 protocol or a foreign equivalent safety authority. Furthermore, Paramount Business Jets subscribes to ARGUS for their third party safety checks of operators, aircraft, and crews prior each and every flight to and from Jinzhou Airport and worldwide.

  • Quote a trip using Jinzhou Airport or call us 24/7 - 365 days a year at +1-877-727-2538.
Questions? Call +1-877-727-2538

METAR Weather Data at Jinzhou Airport, ZYJZ

STATIONZYJZ
OBSERVEDTue Aug 19, 21:00 UTC
NOWTue Jul 16, 04:03 UTC
AGE42991:03 hr ago
WINDcalm
VISIBILITY3.2 miles
CONDITIONSmist
METARZYJZ 192100Z 00000MPS 2000 BR NSC 19/18 Q1010 NOSIG

Call us on +1-877-727-2538 (24 Hours) to Hire a Private Jet or Get a Quick Quote.

Find Airports Near any Location

Processing
...